Time;durP1;ratioP1;P1;durP2;ratioP2;P2;SDS_P1;SDS_P2;PMS_P1;PMS_P2;Temp;Humidity;BMP_temperature;BMP_pressure;BME280_temperature;BME280_humidity;BME280_pressure;Samples;Min_cycle;Max_cycle;Signal;HPM_P1;HPM_P2
2022/04/21 00:02:42;;;;;;;9.20;2.45;;;;;;;;;;10427666;28;20610;-52
2022/04/21 00:07:43;;;;;;;6.18;2.42;;;;;;;;;;10425084;28;20025;-50
2022/04/21 00:12:44;;;;;;;22.70;2.78;;;;;;;;;;10433562;28;20029;-51
2022/04/21 00:17:45;;;;;;;11.52;2.15;;;;;;;;;;10421961;28;20541;-45
2022/04/21 00:28:06;;;;;;;6.85;2.47;;;;;;;;;;10426598;28;20037;-49
2022/04/21 00:33:06;;;;;;;5.53;2.38;;;;;;;;;;10426401;28;20544;-50
2022/04/21 00:38:07;;;;;;;4.10;2.28;;;;;;;;;;10440314;28;20068;-48
2022/04/21 00:43:07;;;;;;;4.13;2.28;;;;;;;;;;10434454;28;20037;-48
2022/04/21 00:48:08;;;;;;;8.90;1.88;;;;;;;;;;10433810;28;20080;-49
2022/04/21 00:53:09;;;;;;;4.13;2.35;;;;;;;;;;10435768;28;20067;-54
2022/04/21 00:58:10;;;;;;;3.22;1.80;;;;;;;;;;10437510;28;20404;-43
2022/04/21 01:03:14;;;;;;;5.82;2.10;;;;;;;;;;10434714;28;20036;-46
2022/04/21 01:08:15;;;;;;;7.15;1.83;;;;;;;;;;10429865;28;20029;-56
2022/04/21 01:13:16;;;;;;;6.07;1.95;;;;;;;;;;10438154;28;20029;-50
2022/04/21 01:18:27;;;;;;;2.63;1.90;;;;;;;;;;10432901;28;20029;-42
2022/04/21 01:23:28;;;;;;;5.03;2.00;;;;;;;;;;10442037;28;20056;-42
2022/04/21 01:28:30;;;;;;;4.85;2.00;;;;;;;;;;10435400;28;20443;-42
2022/04/21 01:33:33;;;;;;;4.38;1.90;;;;;;;;;;10438652;28;20104;-42
2022/04/21 01:43:53;;;;;;;3.53;2.20;;;;;;;;;;10430249;28;20273;-45
2022/04/21 01:48:54;;;;;;;4.45;2.00;;;;;;;;;;10439190;28;20037;-43
2022/04/21 01:53:56;;;;;;;4.35;1.92;;;;;;;;;;10429768;28;20020;-42
2022/04/21 01:58:57;;;;;;;4.70;1.98;;;;;;;;;;10444103;28;20100;-42
2022/04/21 02:03:57;;;;;;;2.97;2.05;;;;;;;;;;10430879;28;20033;-43
2022/04/21 02:08:58;;;;;;;2.67;1.63;;;;;;;;;;10428232;28;20942;-42
2022/04/21 02:13:58;;;;;;;6.25;2.00;;;;;;;;;;10435978;28;20068;-42
2022/04/21 02:18:59;;;;;;;5.38;2.00;;;;;;;;;;10431394;28;20404;-42
2022/04/21 02:23:59;;;;;;;2.45;2.05;;;;;;;;;;10426396;28;20034;-51
2022/04/21 02:29:00;;;;;;;4.43;2.00;;;;;;;;;;10432920;28;20048;-55
2022/04/21 02:34:00;;;;;;;3.60;2.00;;;;;;;;;;10425822;28;20099;-50
2022/04/21 02:39:01;;;;;;;2.65;1.55;;;;;;;;;;10434796;28;20037;-53
2022/04/21 02:44:02;;;;;;;4.10;2.08;;;;;;;;;;10424767;28;20060;-50
2022/04/21 02:49:03;;;;;;;5.03;1.80;;;;;;;;;;10441233;28;20044;-43
2022/04/21 02:59:23;;;;;;;3.53;1.98;;;;;;;;;;10432338;28;20049;-43
2022/04/21 03:04:24;;;;;;;3.30;1.90;;;;;;;;;;10428288;28;20480;-51
2022/04/21 03:09:24;;;;;;;2.85;1.95;;;;;;;;;;10434227;28;20566;-52
2022/04/21 03:14:25;;;;;;;3.55;1.90;;;;;;;;;;10431391;28;20033;-47
2022/04/21 03:19:26;;;;;;;6.45;1.80;;;;;;;;;;10424708;28;20045;-44
2022/04/21 03:24:29;;;;;;;3.10;2.10;;;;;;;;;;10429399;28;20056;-47
2022/04/21 03:29:30;;;;;;;1.83;1.70;;;;;;;;;;10437628;28;20465;-55
2022/04/21 03:34:31;;;;;;;2.80;1.55;;;;;;;;;;10430123;28;20041;-43
2022/04/21 03:39:31;;;;;;;3.05;1.83;;;;;;;;;;10432496;28;20040;-54
2022/04/21 03:44:32;;;;;;;4.38;2.08;;;;;;;;;;10431165;28;20087;-46
2022/04/21 03:49:33;;;;;;;4.75;2.13;;;;;;;;;;10426938;28;20030;-46
2022/04/21 03:54:33;;;;;;;2.97;1.73;;;;;;;;;;10425859;28;20500;-46
2022/04/21 03:59:36;;;;;;;2.38;1.50;;;;;;;;;;10440067;28;20056;-48
2022/04/21 04:04:37;;;;;;;2.35;1.70;;;;;;;;;;10430247;28;20037;-46
2022/04/21 04:14:59;;;;;;;2.15;1.60;;;;;;;;;;10437303;28;20555;-52
2022/04/21 04:20:00;;;;;;;2.05;1.60;;;;;;;;;;10436546;28;20017;-46
2022/04/21 04:25:01;;;;;;;1.70;1.60;;;;;;;;;;10438069;28;20033;-49
2022/04/21 04:30:03;;;;;;;2.58;1.83;;;;;;;;;;10428811;28;20052;-48
2022/04/21 04:35:04;;;;;;;2.25;1.65;;;;;;;;;;10446222;28;20063;-53
2022/04/21 04:40:06;;;;;;;2.10;1.77;;;;;;;;;;10432601;28;20034;-45
2022/04/21 04:50:26;;;;;;;2.75;1.88;;;;;;;;;;10447426;28;20128;-42
2022/04/21 04:55:27;;;;;;;2.65;1.75;;;;;;;;;;10439938;28;20041;-42
2022/04/21 05:00:29;;;;;;;2.50;1.45;;;;;;;;;;10445389;28;20053;-42
2022/04/21 05:05:30;;;;;;;2.08;1.60;;;;;;;;;;10437350;28;20052;-42
2022/04/21 05:10:30;;;;;;;2.20;1.50;;;;;;;;;;10419504;28;20022;-44
2022/04/21 05:15:31;;;;;;;3.05;1.73;;;;;;;;;;10436953;28;20033;-42
2022/04/21 05:20:31;;;;;;;1.70;1.60;;;;;;;;;;10429344;28;20028;-43
2022/04/21 05:25:36;;;;;;;1.63;1.52;;;;;;;;;;10436862;28;20106;-42
2022/04/21 05:30:56;;;;;;;2.03;1.75;;;;;;;;;;10416904;28;20029;-48
2022/04/21 05:35:59;;;;;;;2.60;1.60;;;;;;;;;;10439345;28;20041;-44
2022/04/21 05:41:00;;;;;;;2.33;1.63;;;;;;;;;;10428586;28;20499;-42
2022/04/21 05:46:01;;;;;;;1.50;1.40;;;;;;;;;;10446433;28;20121;-42
2022/04/21 05:51:04;;;;;;;2.33;1.63;;;;;;;;;;10442714;28;20074;-42
2022/04/21 05:56:09;;;;;;;1.67;1.58;;;;;;;;;;10439592;28;20052;-42
2022/04/21 06:01:10;;;;;;;3.63;1.58;;;;;;;;;;10441541;28;20029;-42
2022/04/21 06:06:11;;;;;;;2.33;1.75;;;;;;;;;;10465128;28;20075;-41
2022/04/21 06:11:16;;;;;;;3.72;1.92;;;;;;;;;;10436195;28;20087;-41
2022/04/21 06:16:16;;;;;;;3.53;1.92;;;;;;;;;;10449503;28;20052;-40
2022/04/21 06:21:17;;;;;;;12.25;3.45;;;;;;;;;;10432260;28;20116;-42
2022/04/21 06:26:18;;;;;;;12.15;4.75;;;;;;;;;;10425908;28;20036;-41
2022/04/21 06:31:18;;;;;;;15.95;5.10;;;;;;;;;;10441296;28;20496;-43
2022/04/21 06:36:19;;;;;;;16.33;5.47;;;;;;;;;;10433407;28;20033;-40
2022/04/21 06:41:19;;;;;;;16.48;4.50;;;;;;;;;;10435285;28;20024;-41
2022/04/21 06:51:40;;;;;;;12.63;4.65;;;;;;;;;;10419346;28;20102;-41
2022/04/21 06:56:43;;;;;;;18.92;5.22;;;;;;;;;;10432912;28;20057;-47
2022/04/21 07:01:47;;;;;;;9.68;3.85;;;;;;;;;;10423744;28;20037;-43
2022/04/21 07:06:48;;;;;;;25.50;5.13;;;;;;;;;;10429746;28;20025;-45
2022/04/21 07:11:48;;;;;;;17.27;4.32;;;;;;;;;;10433815;28;20483;-43
2022/04/21 07:16:49;;;;;;;11.93;4.70;;;;;;;;;;10424499;28;20049;-42
2022/04/21 07:21:49;;;;;;;11.48;4.63;;;;;;;;;;10426250;28;20388;-41
2022/04/21 07:26:50;;;;;;;12.63;3.65;;;;;;;;;;10437156;28;20025;-48
2022/04/21 07:31:51;;;;;;;11.52;3.92;;;;;;;;;;10449172;28;20028;-47
2022/04/21 07:36:51;;;;;;;11.32;3.30;;;;;;;;;;10430917;28;20446;-43
2022/04/21 07:41:52;;;;;;;10.10;3.20;;;;;;;;;;10437791;28;20484;-48
2022/04/21 07:46:56;;;;;;;8.85;3.03;;;;;;;;;;10425990;28;20033;-43
2022/04/21 07:53:13;;;;;;;15.45;3.50;;;;;;;;;;10430374;28;20048;-41
2022/04/21 07:57:17;;;;;;;8.15;3.05;;;;;;;;;;10434952;28;20060;-41
2022/04/21 08:02:17;;;;;;;12.10;3.30;;;;;;;;;;10447358;28;20040;-42
2022/04/21 08:07:18;;;;;;;5.25;2.70;;;;;;;;;;10453638;28;20070;-44
2022/04/21 08:12:19;;;;;;;9.90;2.30;;;;;;;;;;10429389;28;20025;-42
2022/04/21 08:17:20;;;;;;;11.20;2.65;;;;;;;;;;10439501;28;20025;-47
2022/04/21 08:22:20;;;;;;;12.50;3.20;;;;;;;;;;10411645;28;20483;-45
2022/04/21 08:32:44;;;;;;;6.05;2.50;;;;;;;;;;10438886;28;20029;-43
2022/04/21 08:37:45;;;;;;;6.22;2.40;;;;;;;;;;10436675;28;20041;-41
2022/04/21 08:42:46;;;;;;;7.45;2.50;;;;;;;;;;10429520;28;20029;-45
2022/04/21 08:47:48;;;;;;;9.60;2.67;;;;;;;;;;10436867;28;20370;-44
2022/04/21 08:52:49;;;;;;;12.10;2.35;;;;;;;;;;10428347;28;20030;-46
2022/04/21 08:57:50;;;;;;;4.72;2.53;;;;;;;;;;10427800;28;20491;-46
2022/04/21 09:02:50;;;;;;;4.90;2.13;;;;;;;;;;10422160;28;20033;-45
2022/04/21 09:07:52;;;;;;;4.25;2.65;;;;;;;;;;10432454;28;20056;-46
2022/04/21 09:12:59;;;;;;;6.68;1.88;;;;;;;;;;10440318;28;20468;-46
2022/04/21 09:18:08;;;;;;;8.75;2.50;;;;;;;;;;10428124;28;20114;-49
2022/04/21 09:23:11;;;;;;;4.57;2.63;;;;;;;;;;10439702;28;20052;-44
2022/04/21 09:28:26;;;;;;;6.68;1.98;;;;;;;;;;10442121;28;20047;-47
2022/04/21 09:33:30;;;;;;;9.65;3.15;;;;;;;;;;10438204;28;20041;-47
2022/04/21 09:38:34;;;;;;;4.47;2.22;;;;;;;;;;10428936;28;20061;-41
2022/04/21 09:43:37;;;;;;;5.95;2.13;;;;;;;;;;10436863;28;20443;-41
2022/04/21 09:48:39;;;;;;;7.90;2.47;;;;;;;;;;10437874;28;20065;-45
2022/04/21 09:54:03;;;;;;;11.30;2.47;;;;;;;;;;10431271;28;20033;-48
2022/04/21 09:59:08;;;;;;;3.38;2.00;;;;;;;;;;10417296;28;20519;-41
2022/04/21 10:04:13;;;;;;;4.72;2.47;;;;;;;;;;10433890;28;20029;-43
2022/04/21 10:09:18;;;;;;;4.32;2.17;;;;;;;;;;10433788;28;20116;-45
2022/04/21 10:14:19;;;;;;;7.32;2.65;;;;;;;;;;10425356;28;20059;-42
2022/04/21 10:19:21;;;;;;;4.95;2.72;;;;;;;;;;10420923;28;20021;-56
2022/04/21 10:24:27;;;;;;;6.25;2.60;;;;;;;;;;10420693;28;20017;-58
2022/04/21 10:29:28;;;;;;;3.55;2.30;;;;;;;;;;10443198;28;20033;-58
2022/04/21 10:34:43;;;;;;;8.00;2.20;;;;;;;;;;10437061;28;20392;-59
2022/04/21 10:39:58;;;;;;;12.90;2.75;;;;;;;;;;10438984;28;20147;-58
2022/04/21 10:45:13;;;;;;;3.45;2.22;;;;;;;;;;10428562;28;20028;-58
2022/04/21 10:50:19;;;;;;;5.90;2.30;;;;;;;;;;10430909;28;20537;-58
2022/04/21 11:00:40;;;;;;;4.20;2.17;;;;;;;;;;10428366;28;20496;-57
2022/04/21 11:05:40;;;;;;;6.53;2.58;;;;;;;;;;10433904;28;20033;-59
2022/04/21 11:10:45;;;;;;;9.20;2.28;;;;;;;;;;10435860;28;20060;-58
2022/04/21 11:15:50;;;;;;;3.67;2.15;;;;;;;;;;10434004;28;20043;-58
2022/04/21 11:20:51;;;;;;;8.30;2.40;;;;;;;;;;10433367;28;20035;-58
2022/04/21 11:26:01;;;;;;;3.95;2.15;;;;;;;;;;10433129;28;20017;-58
2022/04/21 11:31:03;;;;;;;3.63;1.95;;;;;;;;;;10421169;28;20063;-59
2022/04/21 11:36:09;;;;;;;6.03;2.20;;;;;;;;;;10438664;28;20399;-59
2022/04/21 11:41:12;;;;;;;4.70;2.17;;;;;;;;;;10435297;28;20029;-58
2022/04/21 11:46:13;;;;;;;4.45;2.00;;;;;;;;;;10428922;28;20021;-58
2022/04/21 11:51:25;;;;;;;6.88;2.50;;;;;;;;;;10427519;28;20496;-58
2022/04/21 11:56:27;;;;;;;8.10;2.30;;;;;;;;;;10436408;28;20052;-59
2022/04/21 12:06:53;;;;;;;4.55;2.15;;;;;;;;;;10411348;28;20540;-59
2022/04/21 12:12:03;;;;;;;9.02;2.30;;;;;;;;;;10428300;28;20033;-59
2022/04/21 12:17:06;;;;;;;6.95;2.10;;;;;;;;;;10431271;28;20036;-58
2022/04/21 12:22:09;;;;;;;4.20;1.98;;;;;;;;;;10423170;28;20056;-59
2022/04/21 12:27:23;;;;;;;9.50;2.13;;;;;;;;;;10426705;28;20388;-59
2022/04/21 12:32:27;;;;;;;5.65;1.80;;;;;;;;;;10431589;28;20087;-59
2022/04/21 12:37:31;;;;;;;4.53;2.40;;;;;;;;;;10438798;28;20028;-59
2022/04/21 12:42:33;;;;;;;7.13;2.05;;;;;;;;;;10438615;28;20061;-59
2022/04/21 12:47:47;;;;;;;3.60;2.03;;;;;;;;;;10455876;28;20045;-59
2022/04/21 12:52:49;;;;;;;9.75;1.90;;;;;;;;;;10431908;28;20075;-59
2022/04/21 12:58:09;;;;;;;10.82;1.92;;;;;;;;;;10455356;28;20052;-59
2022/04/21 13:03:14;;;;;;;10.80;2.25;;;;;;;;;;10471111;28;20560;-59
2022/04/21 13:08:16;;;;;;;16.58;2.58;;;;;;;;;;10453758;28;20102;-62
2022/04/21 13:13:17;;;;;;;17.02;2.30;;;;;;;;;;10426077;28;20035;-61
2022/04/21 13:18:17;;;;;;;8.57;1.77;;;;;;;;;;10420489;28;20089;-62
2022/04/21 13:23:18;;;;;;;17.52;2.60;;;;;;;;;;10437749;28;20033;-59
2022/04/21 13:28:19;;;;;;;11.23;1.90;;;;;;;;;;10440176;28;20028;-59
2022/04/21 13:33:23;;;;;;;17.42;2.55;;;;;;;;;;10450725;28;20121;-58
2022/04/21 13:38:24;;;;;;;20.52;2.25;;;;;;;;;;10439339;28;20029;-58
2022/04/21 13:43:26;;;;;;;10.07;2.00;;;;;;;;;;10419581;28;20063;-59
2022/04/21 13:48:27;;;;;;;9.15;2.28;;;;;;;;;;10433543;28;20141;-59
2022/04/21 13:53:27;;;;;;;5.57;2.00;;;;;;;;;;10432385;28;20047;-60
2022/04/21 13:58:28;;;;;;;4.53;1.95;;;;;;;;;;10423621;28;20033;-60
2022/04/21 14:03:32;;;;;;;6.03;2.00;;;;;;;;;;10421303;28;20036;-60
2022/04/21 14:08:34;;;;;;;8.23;2.33;;;;;;;;;;10431022;28;20040;-61
2022/04/21 14:13:35;;;;;;;4.03;1.98;;;;;;;;;;10439515;28;20507;-61
2022/04/21 14:18:36;;;;;;;6.32;1.90;;;;;;;;;;10443739;28;20040;-60
2022/04/21 14:23:37;;;;;;;4.15;2.08;;;;;;;;;;10423759;28;20035;-61
2022/04/21 14:28:41;;;;;;;8.50;1.92;;;;;;;;;;10423166;28;20064;-60
2022/04/21 14:33:42;;;;;;;3.60;1.80;;;;;;;;;;10416200;28;20123;-61
2022/04/21 14:44:05;;;;;;;12.23;2.00;;;;;;;;;;10434588;28;20029;-60
2022/04/21 14:49:10;;;;;;;4.03;1.92;;;;;;;;;;10442884;28;20034;-61
2022/04/21 14:54:12;;;;;;;5.13;1.83;;;;;;;;;;10440897;28;20052;-60
2022/04/21 14:59:12;;;;;;;5.32;1.63;;;;;;;;;;10421012;28;20041;-60
2022/04/21 15:04:13;;;;;;;5.10;1.83;;;;;;;;;;10438257;28;20037;-60
2022/04/21 15:09:14;;;;;;;3.85;2.30;;;;;;;;;;10433674;28;20021;-60
2022/04/21 15:14:14;;;;;;;6.85;1.98;;;;;;;;;;10438207;28;20037;-60
2022/04/21 15:19:15;;;;;;;3.97;2.00;;;;;;;;;;10428592;28;20036;-61
2022/04/21 15:24:15;;;;;;;7.07;2.17;;;;;;;;;;10436046;28;20033;-60
2022/04/21 15:29:16;;;;;;;3.10;1.75;;;;;;;;;;10434743;28;20500;-61
2022/04/21 15:34:17;;;;;;;3.03;1.90;;;;;;;;;;10440787;28;20021;-60
2022/04/21 15:39:18;;;;;;;5.85;1.80;;;;;;;;;;10441701;28;20048;-60
2022/04/21 15:44:19;;;;;;;6.00;2.20;;;;;;;;;;10429962;28;20025;-60
2022/04/21 15:49:20;;;;;;;3.35;1.67;;;;;;;;;;10441952;28;20033;-60
2022/04/21 15:59:39;;;;;;;2.10;1.58;;;;;;;;;;10450364;28;20057;-61
2022/04/21 16:04:40;;;;;;;5.50;1.75;;;;;;;;;;10425038;28;20460;-62
2022/04/21 16:09:42;;;;;;;4.13;1.90;;;;;;;;;;10444066;28;20524;-61
2022/04/21 16:14:43;;;;;;;3.20;1.80;;;;;;;;;;10432608;28;20029;-61
2022/04/21 16:19:44;;;;;;;3.60;1.85;;;;;;;;;;10449235;28;20447;-61
2022/04/21 16:24:45;;;;;;;3.33;1.67;;;;;;;;;;10450183;28;20035;-61
2022/04/21 16:29:46;;;;;;;4.45;1.90;;;;;;;;;;10444870;28;20033;-61
2022/04/21 16:34:50;;;;;;;3.38;2.13;;;;;;;;;;10442148;28;20098;-59
2022/04/21 16:39:51;;;;;;;2.70;1.60;;;;;;;;;;10447441;28;20076;-61
2022/04/21 16:44:51;;;;;;;3.20;1.80;;;;;;;;;;10444844;28;20071;-60
2022/04/21 16:49:52;;;;;;;1.60;1.50;;;;;;;;;;10445920;28;20048;-60
2022/04/21 16:54:52;;;;;;;3.25;1.80;;;;;;;;;;10436493;28;20097;-60
2022/04/21 16:59:53;;;;;;;2.83;1.70;;;;;;;;;;10452416;28;20056;-61
2022/04/21 17:04:53;;;;;;;3.05;1.83;;;;;;;;;;10435460;28;20024;-60
2022/04/21 17:09:54;;;;;;;4.10;2.08;;;;;;;;;;10442192;28;20044;-60
2022/04/21 17:14:55;;;;;;;5.10;2.17;;;;;;;;;;10440127;28;20052;-60
2022/04/21 17:19:55;;;;;;;2.67;1.70;;;;;;;;;;10444256;28;20467;-60
2022/04/21 17:24:56;;;;;;;4.13;1.85;;;;;;;;;;10446560;28;20036;-60
2022/04/21 17:29:56;;;;;;;2.95;1.63;;;;;;;;;;10440202;28;20095;-59
2022/04/21 17:34:58;;;;;;;16.33;2.65;;;;;;;;;;10436379;28;20025;-61
2022/04/21 17:39:59;;;;;;;24.02;2.65;;;;;;;;;;10436145;28;20136;-62
2022/04/21 17:45:00;;;;;;;12.93;2.67;;;;;;;;;;10444609;28;20040;-62
2022/04/21 17:50:01;;;;;;;11.30;2.47;;;;;;;;;;10438681;28;20029;-62
2022/04/21 17:55:03;;;;;;;4.93;2.35;;;;;;;;;;10449630;28;20041;-62
2022/04/21 18:00:04;;;;;;;13.80;1.95;;;;;;;;;;10445599;28;20118;-61
2022/04/21 18:05:06;;;;;;;8.02;1.95;;;;;;;;;;10438009;28;20040;-62
2022/04/21 18:10:07;;;;;;;4.15;2.00;;;;;;;;;;10431340;28;20037;-62
2022/04/21 18:15:08;;;;;;;8.85;2.13;;;;;;;;;;10443278;28;20041;-62
2022/04/21 18:20:11;;;;;;;5.35;2.13;;;;;;;;;;10441315;28;20047;-62
2022/04/21 18:25:12;;;;;;;3.72;2.00;;;;;;;;;;10433269;28;20029;-62
2022/04/21 18:30:13;;;;;;;4.75;2.00;;;;;;;;;;10443258;28;20037;-63
2022/04/21 18:35:14;;;;;;;5.38;1.63;;;;;;;;;;10447654;28;20029;-62
2022/04/21 18:40:14;;;;;;;9.88;1.90;;;;;;;;;;10440523;28;20506;-61
2022/04/21 18:45:15;;;;;;;10.45;2.28;;;;;;;;;;10446294;28;20478;-59
2022/04/21 18:50:16;;;;;;;10.75;2.17;;;;;;;;;;10445977;28;20024;-58
2022/04/21 18:55:16;;;;;;;8.30;2.22;;;;;;;;;;10445267;28;20043;-58
2022/04/21 19:00:18;;;;;;;7.18;2.10;;;;;;;;;;10438365;28;20048;-54
2022/04/21 19:05:19;;;;;;;5.82;1.85;;;;;;;;;;10453280;28;20037;-58
2022/04/21 19:10:20;;;;;;;9.18;2.17;;;;;;;;;;10428829;28;20059;-57
2022/04/21 19:15:21;;;;;;;3.53;2.03;;;;;;;;;;10428257;28;20036;-60
2022/04/21 19:20:23;;;;;;;2.83;1.75;;;;;;;;;;10453960;28;20104;-57
2022/04/21 19:25:25;;;;;;;5.63;2.38;;;;;;;;;;10434538;28;20135;-59
2022/04/21 19:30:26;;;;;;;11.60;1.92;;;;;;;;;;10448122;28;20025;-61
2022/04/21 19:35:27;;;;;;;3.33;1.70;;;;;;;;;;10441730;28;20037;-57
2022/04/21 19:40:27;;;;;;;4.50;1.80;;;;;;;;;;10446948;28;20025;-61
2022/04/21 19:45:30;;;;;;;6.22;1.90;;;;;;;;;;10448448;28;20385;-61
2022/04/21 19:50:32;;;;;;;6.05;2.22;;;;;;;;;;10452022;28;20045;-61
2022/04/21 19:55:33;;;;;;;3.20;2.00;;;;;;;;;;10444541;28;20047;-61
2022/04/21 20:00:33;;;;;;;4.75;2.00;;;;;;;;;;10443491;28;20083;-62
2022/04/21 20:10:55;;;;;;;5.97;1.75;;;;;;;;;;10428302;28;20120;-63
2022/04/21 20:15:55;;;;;;;7.15;2.10;;;;;;;;;;10442534;28;20030;-65
2022/04/21 20:31:35;;;;;;;6.93;2.20;;;;;;;;;;10430618;28;20037;-64
2022/04/21 20:36:36;;;;;;;8.57;2.10;;;;;;;;;;10428581;28;20032;-63
2022/04/21 20:41:37;;;;;;;8.27;2.40;;;;;;;;;;10421300;28;20041;-65
2022/04/21 20:46:37;;;;;;;11.55;2.13;;;;;;;;;;10431142;28;20370;-65
2022/04/21 20:51:38;;;;;;;9.25;2.13;;;;;;;;;;10412386;28;20333;-65
2022/04/21 20:56:38;;;;;;;7.45;2.58;;;;;;;;;;10443744;28;20056;-65
2022/04/21 21:01:39;;;;;;;6.72;2.10;;;;;;;;;;10435782;28;20057;-64
2022/04/21 21:12:00;;;;;;;4.57;2.13;;;;;;;;;;10438566;28;20484;-64
2022/04/21 21:17:01;;;;;;;9.60;2.20;;;;;;;;;;10445376;28;20022;-64
2022/04/21 21:22:01;;;;;;;7.43;2.47;;;;;;;;;;10436411;28;20039;-64
2022/04/21 21:27:02;;;;;;;7.00;2.13;;;;;;;;;;10424141;28;20033;-63
2022/04/21 21:32:03;;;;;;;6.35;2.30;;;;;;;;;;10423002;28;20032;-63
2022/04/21 21:37:04;;;;;;;6.47;2.05;;;;;;;;;;10422793;28;20033;-58
2022/04/21 21:42:05;;;;;;;4.43;2.67;;;;;;;;;;10432058;28;20029;-57
2022/04/21 21:47:06;;;;;;;5.45;2.65;;;;;;;;;;10449110;28;20025;-57
2022/04/21 21:57:26;;;;;;;9.55;2.20;;;;;;;;;;10442775;28;20053;-58
2022/04/21 22:02:28;;;;;;;14.77;2.15;;;;;;;;;;10424901;28;20025;-58
2022/04/21 22:07:28;;;;;;;10.55;2.20;;;;;;;;;;10431402;28;20025;-58
2022/04/21 22:12:29;;;;;;;8.98;2.42;;;;;;;;;;10437212;28;20024;-63
2022/04/21 22:17:29;;;;;;;2.63;1.90;;;;;;;;;;10429878;28;20035;-67
2022/04/21 22:22:30;;;;;;;12.55;2.10;;;;;;;;;;10431002;28;20047;-65
2022/04/21 22:27:31;;;;;;;8.40;2.13;;;;;;;;;;10434064;28;20058;-63
2022/04/21 22:32:32;;;;;;;6.40;2.03;;;;;;;;;;10441400;28;20113;-61
2022/04/21 22:37:32;;;;;;;7.35;2.17;;;;;;;;;;10424783;28;20508;-66
2022/04/21 22:42:34;;;;;;;10.95;2.40;;;;;;;;;;10436440;28;20472;-61
2022/04/21 22:47:36;;;;;;;7.10;2.08;;;;;;;;;;10430755;28;20025;-60
2022/04/21 22:52:40;;;;;;;4.30;1.98;;;;;;;;;;10439261;28;20113;-61
2022/04/21 22:57:41;;;;;;;6.32;2.15;;;;;;;;;;10447045;28;20092;-63
2022/04/21 23:02:41;;;;;;;15.93;2.55;;;;;;;;;;10439455;28;20045;-62
2022/04/21 23:07:42;;;;;;;5.13;1.92;;;;;;;;;;10444189;28;20021;-64
2022/04/21 23:18:02;;;;;;;3.65;1.80;;;;;;;;;;10445046;28;20033;-59
2022/04/21 23:23:03;;;;;;;7.35;2.30;;;;;;;;;;10436637;28;20480;-66
2022/04/21 23:28:05;;;;;;;9.25;2.40;;;;;;;;;;10449377;28;20037;-64
2022/04/21 23:33:06;;;;;;;6.25;2.00;;;;;;;;;;10417276;28;20047;-66
2022/04/21 23:43:28;;;;;;;3.75;2.20;;;;;;;;;;10430174;28;20030;-59
2022/04/21 23:48:29;;;;;;;5.85;2.08;;;;;;;;;;10442830;28;20488;-58
2022/04/21 23:53:29;;;;;;;12.80;2.13;;;;;;;;;;10428506;28;20028;-59
2022/04/21 23:58:30;;;;;;;8.05;2.67;;;;;;;;;;10451361;28;20045;-62
